createdAt,value
2023-03-24T00:02:51.550Z,52.69
2023-03-24T00:06:01.919Z,52.60
2023-03-24T00:09:06.564Z,52.55
2023-03-24T00:12:11.397Z,52.53
2023-03-24T00:15:19.124Z,52.76
2023-03-24T00:18:26.056Z,52.81
2023-03-24T00:21:30.580Z,52.86
2023-03-24T00:24:35.337Z,52.97
2023-03-24T00:27:40.070Z,53.09
2023-03-24T00:30:51.968Z,53.10
2023-03-24T00:33:56.703Z,53.17
2023-03-24T00:37:01.193Z,53.16
2023-03-24T00:40:08.292Z,53.28
2023-03-24T00:43:14.118Z,53.38
2023-03-24T00:46:28.952Z,53.39
2023-03-24T00:49:46.152Z,53.41
2023-03-24T00:52:50.767Z,53.47
2023-03-24T00:55:55.502Z,53.47
2023-03-24T00:59:02.665Z,53.74
2023-03-24T01:02:11.981Z,53.71
2023-03-24T01:05:17.739Z,53.90
2023-03-24T01:08:22.298Z,53.83
2023-03-24T01:11:28.470Z,53.80
2023-03-24T01:14:33.213Z,53.83
2023-03-24T01:17:37.775Z,53.83
2023-03-24T01:20:45.887Z,53.97
2023-03-24T01:23:50.553Z,54.01
2023-03-24T01:26:55.098Z,54.18
2023-03-24T01:30:01.894Z,54.25
2023-03-24T01:33:06.893Z,54.19
2023-03-24T01:36:11.800Z,54.17
2023-03-24T01:39:16.613Z,54.26
2023-03-24T01:42:22.101Z,54.22
2023-03-24T01:45:55.228Z,54.33
2023-03-24T01:49:01.798Z,54.37
2023-03-24T01:52:08.567Z,54.41
2023-03-24T01:55:18.729Z,54.46
2023-03-24T01:58:23.601Z,54.66
2023-03-24T02:01:30.866Z,54.78
2023-03-24T02:04:38.869Z,54.80
2023-03-24T02:07:48.200Z,54.90
2023-03-24T02:10:55.033Z,54.94
2023-03-24T02:13:59.938Z,54.92
2023-03-24T02:17:16.421Z,55.02
2023-03-24T02:20:41.585Z,54.89
2023-03-24T02:24:13.389Z,54.95
2023-03-24T02:27:30.304Z,54.97
2023-03-24T02:30:45.119Z,55.04
2023-03-24T02:34:04.813Z,55.14
2023-03-24T02:37:32.779Z,55.27
2023-03-24T02:40:38.896Z,55.58
2023-03-24T02:43:47.646Z,55.71
2023-03-24T02:46:55.297Z,55.81
2023-03-24T02:50:04.103Z,55.81
2023-03-24T02:53:11.113Z,55.94
2023-03-24T02:56:18.513Z,56.07
2023-03-24T02:59:27.701Z,56.12
2023-03-24T03:02:34.476Z,56.21
2023-03-24T03:05:43.458Z,56.26
2023-03-24T03:08:49.361Z,56.38
2023-03-24T03:11:55.922Z,56.46
2023-03-24T03:15:03.106Z,56.57
2023-03-24T03:18:11.131Z,56.84
2023-03-24T03:21:17.349Z,56.85
2023-03-24T03:24:27.382Z,57.09
2023-03-24T03:27:39.170Z,57.18
2023-03-24T03:30:47.737Z,57.22
2023-03-24T03:33:55.569Z,57.32
2023-03-24T03:37:05.109Z,57.44
2023-03-24T03:40:12.613Z,57.50
2023-03-24T03:43:17.663Z,57.50
2023-03-24T03:46:22.349Z,57.58
2023-03-24T03:49:27.105Z,57.73
2023-03-24T03:52:31.792Z,57.71
2023-03-24T03:55:36.645Z,57.84
2023-03-24T03:58:42.519Z,58.03
2023-03-24T04:01:48.951Z,58.06
2023-03-24T04:05:06.966Z,58.17
2023-03-24T04:08:16.028Z,58.21
2023-03-24T04:11:34.075Z,58.24
2023-03-24T04:14:44.993Z,58.14
2023-03-24T04:17:56.873Z,58.07
2023-03-24T04:21:08.915Z,58.46
2023-03-24T04:24:19.459Z,58.62
2023-03-24T04:27:28.406Z,58.46
2023-03-24T04:30:37.427Z,58.25
2023-03-24T04:33:45.644Z,58.23
2023-03-24T04:36:54.706Z,58.17
2023-03-24T04:40:00.357Z,58.29
2023-03-24T04:43:07.475Z,58.41
2023-03-24T04:46:12.531Z,58.50
2023-03-24T04:49:17.034Z,58.43
2023-03-24T04:52:21.565Z,58.53
2023-03-24T04:55:34.570Z,58.80
2023-03-24T04:58:39.114Z,58.92
2023-03-24T05:01:50.363Z,59.01
2023-03-24T05:04:55.377Z,59.31
2023-03-24T05:08:00.335Z,59.46
2023-03-24T05:11:04.874Z,59.59
2023-03-24T05:14:09.430Z,59.75
2023-03-24T05:17:14.034Z,59.82
2023-03-24T05:20:18.664Z,59.74
2023-03-24T05:23:23.195Z,59.80
2023-03-24T05:26:27.816Z,60.00
2023-03-24T05:29:32.372Z,60.24
2023-03-24T05:32:37.115Z,60.48
2023-03-24T05:35:41.735Z,60.61
2023-03-24T05:38:46.303Z,60.76
2023-03-24T05:41:50.969Z,60.88
2023-03-24T05:44:55.581Z,61.13
2023-03-24T05:48:00.142Z,61.17
2023-03-24T05:51:04.838Z,61.31
2023-03-24T05:54:09.467Z,61.36
2023-03-24T05:57:16.198Z,61.20
2023-03-24T06:00:23.406Z,61.27
2023-03-24T06:03:34.423Z,61.33
2023-03-24T06:06:41.112Z,61.53
2023-03-24T06:09:47.348Z,61.49
2023-03-24T06:12:52.197Z,61.51
2023-03-24T06:15:59.420Z,61.45
2023-03-24T06:19:07.012Z,61.54
2023-03-24T06:22:11.870Z,61.50
2023-03-24T06:25:17.948Z,61.42
2023-03-24T06:28:22.618Z,61.41
2023-03-24T06:31:29.728Z,61.56
2023-03-24T06:34:34.622Z,61.64
2023-03-24T06:37:39.310Z,61.60
2023-03-24T06:40:43.874Z,61.76
2023-03-24T06:43:48.398Z,61.79
2023-03-24T06:46:52.857Z,61.87
2023-03-24T06:49:57.455Z,62.03
2023-03-24T06:53:02.193Z,62.18
2023-03-24T06:56:07.686Z,62.29
2023-03-24T06:59:12.159Z,62.29
2023-03-24T07:02:17.121Z,62.43
2023-03-24T07:05:22.069Z,62.52
2023-03-24T07:08:37.144Z,62.71
2023-03-24T07:11:43.379Z,62.71
2023-03-24T07:14:47.983Z,62.76
2023-03-24T07:17:52.565Z,62.73
2023-03-24T07:20:57.150Z,62.98
2023-03-24T07:24:02.344Z,63.05
2023-03-24T07:27:06.915Z,63.25
2023-03-24T07:30:12.078Z,63.32
2023-03-24T07:33:16.590Z,63.51
2023-03-24T07:36:21.256Z,63.59
2023-03-24T07:39:25.847Z,63.75
2023-03-24T07:42:30.274Z,63.78
2023-03-24T07:45:35.024Z,63.69
2023-03-24T07:48:40.009Z,63.87
2023-03-24T07:51:44.680Z,63.91
2023-03-24T07:54:49.295Z,63.72
2023-03-24T07:57:53.808Z,63.57
2023-03-24T08:00:58.412Z,63.75
2023-03-24T08:04:03.005Z,63.78
2023-03-24T08:07:08.553Z,63.58
2023-03-24T08:10:14.181Z,63.63
2023-03-24T08:13:18.897Z,63.45
2023-03-24T08:16:23.551Z,63.43
2023-03-24T08:19:28.149Z,63.16
2023-03-24T08:22:32.698Z,63.06
2023-03-24T08:25:37.586Z,63.17
2023-03-24T08:28:42.914Z,63.13
2023-03-24T08:31:47.394Z,62.83
2023-03-24T08:34:52.108Z,62.83
2023-03-24T08:37:56.657Z,62.66
2023-03-24T08:41:02.762Z,62.63
2023-03-24T08:44:07.720Z,62.57
2023-03-24T08:47:13.139Z,62.61
2023-03-24T08:50:18.117Z,62.36
2023-03-24T08:53:22.870Z,62.30
2023-03-24T08:56:27.398Z,62.14
2023-03-24T08:59:31.857Z,61.82
2023-03-24T09:02:36.563Z,61.92
2023-03-24T09:05:54.031Z,61.76
2023-03-24T09:08:58.690Z,61.65
2023-03-24T09:12:03.313Z,61.28
2023-03-24T09:15:09.021Z,61.34
2023-03-24T09:18:13.494Z,61.11
2023-03-24T09:21:18.319Z,60.77
2023-03-24T09:24:22.957Z,60.42
2023-03-24T09:27:27.446Z,60.31
2023-03-24T09:30:33.940Z,60.35
2023-03-24T09:33:39.697Z,59.94
2023-03-24T09:36:44.338Z,59.82
2023-03-24T09:39:49.195Z,59.48
2023-03-24T09:42:56.900Z,59.17
2023-03-24T09:46:03.166Z,59.18
2023-03-24T09:49:07.652Z,59.11
2023-03-24T09:52:15.291Z,59.08
2023-03-24T09:55:22.633Z,58.72
2023-03-24T09:58:29.843Z,58.41
2023-03-24T10:01:35.060Z,58.22
2023-03-24T10:04:39.814Z,58.12
2023-03-24T10:07:48.674Z,58.25
2023-03-24T10:10:59.528Z,58.28
2023-03-24T10:14:11.954Z,58.19
2023-03-24T10:17:21.477Z,57.51
2023-03-24T10:20:33.260Z,57.29
2023-03-24T10:23:39.211Z,57.17
2023-03-24T10:26:46.719Z,57.08
2023-03-24T10:29:54.246Z,56.89
2023-03-24T10:32:58.810Z,56.70
2023-03-24T10:36:07.782Z,56.81
2023-03-24T10:39:20.924Z,56.55
2023-03-24T10:42:32.917Z,56.47
2023-03-24T10:45:38.844Z,56.29
2023-03-24T10:48:47.527Z,56.00
2023-03-24T10:51:52.723Z,55.86
2023-03-24T10:54:58.423Z,55.78
2023-03-24T10:58:03.218Z,55.58
2023-03-24T11:01:11.682Z,55.80
2023-03-24T11:04:19.979Z,55.83
2023-03-24T11:07:25.692Z,55.51
2023-03-24T11:10:30.323Z,55.01
2023-03-24T11:13:35.264Z,54.79
2023-03-24T11:16:44.405Z,54.72
2023-03-24T11:19:55.572Z,54.47
2023-03-24T11:23:01.331Z,54.38
2023-03-24T11:26:08.326Z,54.38
2023-03-24T11:29:14.609Z,54.22
2023-03-24T11:32:21.509Z,54.19
2023-03-24T11:35:39.085Z,54.20
2023-03-24T11:38:59.586Z,54.02
2023-03-24T11:42:15.077Z,54.19
2023-03-24T11:45:24.514Z,53.98
2023-03-24T11:48:31.409Z,53.74
2023-03-24T11:51:37.770Z,53.33
2023-03-24T11:54:42.389Z,53.28
2023-03-24T11:57:53.883Z,53.32
2023-03-24T12:01:02.154Z,53.21
2023-03-24T12:04:23.003Z,52.97
2023-03-24T12:07:44.635Z,52.89
2023-03-24T12:10:57.115Z,52.61
2023-03-24T12:14:03.202Z,52.44
2023-03-24T12:17:11.155Z,52.60
2023-03-24T12:20:20.556Z,52.08
2023-03-24T12:23:28.400Z,51.91
2023-03-24T12:26:33.386Z,51.56
2023-03-24T12:29:48.459Z,51.17
2023-03-24T12:33:01.391Z,50.99
2023-03-24T12:36:13.792Z,50.74
2023-03-24T12:39:23.550Z,50.36
2023-03-24T12:42:32.795Z,50.39
2023-03-24T12:45:45.754Z,50.09
2023-03-24T12:49:03.004Z,49.74
2023-03-24T12:52:16.973Z,49.31
2023-03-24T12:55:25.521Z,49.34
2023-03-24T12:58:34.740Z,49.16
2023-03-24T13:01:40.786Z,48.76
2023-03-24T13:04:47.365Z,48.58
2023-03-24T13:07:54.782Z,48.60
2023-03-24T13:11:02.937Z,48.46
2023-03-24T13:14:12.461Z,48.42
2023-03-24T13:17:20.624Z,48.23
2023-03-24T13:20:27.636Z,48.03
2023-03-24T13:23:40.323Z,47.84
2023-03-24T13:26:50.280Z,47.65
2023-03-24T13:30:16.937Z,47.53
2023-03-24T13:33:23.298Z,47.58
2023-03-24T13:36:36.253Z,47.62
2023-03-24T13:39:40.947Z,47.49
2023-03-24T13:42:47.145Z,47.28
2023-03-24T13:45:53.198Z,47.05
2023-03-24T13:48:58.847Z,47.22
2023-03-24T13:52:06.422Z,47.28
2023-03-24T13:55:14.116Z,47.12
2023-03-24T13:58:20.696Z,47.14
2023-03-24T14:01:35.080Z,47.02
2023-03-24T14:04:49.574Z,46.96
2023-03-24T14:08:10.915Z,46.97
2023-03-24T14:11:32.287Z,46.97
2023-03-24T14:14:37.181Z,46.91
2023-03-24T14:17:44.244Z,46.88
2023-03-24T14:21:01.984Z,46.98
2023-03-24T14:24:17.415Z,46.79
2023-03-24T14:27:31.933Z,46.88
2023-03-24T14:30:40.876Z,46.99
2023-03-24T14:33:46.663Z,47.11
2023-03-24T14:37:00.262Z,47.18
2023-03-24T14:40:06.699Z,47.26
2023-03-24T14:43:24.231Z,47.27
2023-03-24T14:46:50.367Z,47.39
2023-03-24T14:49:55.743Z,47.53
2023-03-24T14:53:02.292Z,47.60
2023-03-24T14:56:07.988Z,47.54
2023-03-24T14:59:19.412Z,47.61
2023-03-24T15:02:33.160Z,47.30
2023-03-24T15:05:38.988Z,47.14
2023-03-24T15:08:47.009Z,47.04
2023-03-24T15:11:52.132Z,46.83
2023-03-24T15:14:57.525Z,46.75
2023-03-24T15:18:04.090Z,46.69
2023-03-24T15:21:17.094Z,46.64
2023-03-24T15:24:30.167Z,46.40
2023-03-24T15:27:34.602Z,46.54
2023-03-24T15:30:38.901Z,46.33
2023-03-24T15:33:44.086Z,46.19
2023-03-24T15:36:54.199Z,46.16
2023-03-24T15:40:05.578Z,45.94
2023-03-24T15:43:22.031Z,45.81
2023-03-24T15:46:28.285Z,45.77
2023-03-24T15:49:34.015Z,45.59
2023-03-24T15:52:39.137Z,45.47
2023-03-24T15:55:44.407Z,45.43
2023-03-24T15:58:50.126Z,45.43
2023-03-24T16:01:54.632Z,45.34
2023-03-24T16:05:10.854Z,45.22
2023-03-24T16:08:27.522Z,45.06
2023-03-24T16:11:32.026Z,45.03
2023-03-24T16:14:36.408Z,45.12
2023-03-24T16:17:41.034Z,45.13
2023-03-24T16:20:45.398Z,45.05
2023-03-24T16:23:50.495Z,45.00
2023-03-24T16:26:54.983Z,44.95
2023-03-24T16:29:59.382Z,44.90
2023-03-24T16:33:03.852Z,44.87
2023-03-24T16:36:11.608Z,44.95
2023-03-24T16:39:17.176Z,44.59
2023-03-24T16:42:21.730Z,44.68
2023-03-24T16:45:26.112Z,44.86
2023-03-24T16:48:30.515Z,44.87
2023-03-24T16:51:34.970Z,44.88
2023-03-24T16:54:39.216Z,44.74
2023-03-24T16:57:43.670Z,44.74
2023-03-24T17:00:49.798Z,44.84
2023-03-24T17:03:54.830Z,44.97
2023-03-24T17:06:59.313Z,44.75
2023-03-24T17:10:04.102Z,44.85
2023-03-24T17:13:08.566Z,44.86
2023-03-24T17:16:13.231Z,44.89
2023-03-24T17:19:18.462Z,45.04
2023-03-24T17:22:22.992Z,45.09
2023-03-24T17:25:29.314Z,44.99
2023-03-24T17:28:33.676Z,45.13
2023-03-24T17:31:38.154Z,45.14
2023-03-24T17:34:44.971Z,45.22
2023-03-24T17:37:49.806Z,45.27
2023-03-24T17:41:01.400Z,45.56
2023-03-24T17:44:06.054Z,45.45
2023-03-24T17:47:10.527Z,45.55
2023-03-24T17:50:15.369Z,45.56
2023-03-24T17:53:25.743Z,45.78
2023-03-24T17:56:30.396Z,46.00
2023-03-24T17:59:35.005Z,46.15
2023-03-24T18:02:40.008Z,46.40
2023-03-24T18:05:44.979Z,46.44
2023-03-24T18:08:51.949Z,46.78
2023-03-24T18:11:56.369Z,47.06
2023-03-24T18:15:00.786Z,47.06
2023-03-24T18:18:05.353Z,47.19
2023-03-24T18:21:09.973Z,47.39
2023-03-24T18:24:14.438Z,47.41
2023-03-24T18:27:18.733Z,47.54
2023-03-24T18:30:23.532Z,47.79
2023-03-24T18:33:31.465Z,47.92
2023-03-24T18:36:36.553Z,48.22
2023-03-24T18:39:40.982Z,48.37
2023-03-24T18:42:45.426Z,48.47
2023-03-24T18:45:50.160Z,48.74
2023-03-24T18:48:54.778Z,48.89
2023-03-24T18:51:59.300Z,49.05
2023-03-24T18:55:03.709Z,49.30
2023-03-24T18:58:10.370Z,49.50
2023-03-24T19:01:15.993Z,49.70
2023-03-24T19:04:20.490Z,49.80
2023-03-24T19:07:26.392Z,50.01
2023-03-24T19:10:31.512Z,50.31
2023-03-24T19:13:36.313Z,50.48
2023-03-24T19:16:40.919Z,50.32
2023-03-24T19:19:45.378Z,50.50
2023-03-24T19:22:49.793Z,50.47
2023-03-24T19:25:55.215Z,50.56
2023-03-24T19:28:59.587Z,50.65
2023-03-24T19:32:03.855Z,50.82
2023-03-24T19:35:09.475Z,50.98
2023-03-24T19:38:14.310Z,50.91
2023-03-24T19:41:18.659Z,51.19
2023-03-24T19:44:23.622Z,51.31
2023-03-24T19:47:28.124Z,51.56
2023-03-24T19:50:32.883Z,51.67
2023-03-24T19:53:37.326Z,51.91
2023-03-24T19:56:42.008Z,51.93
2023-03-24T19:59:46.359Z,52.25
2023-03-24T20:02:51.220Z,52.30
2023-03-24T20:05:55.811Z,52.40
2023-03-24T20:09:00.207Z,52.53
2023-03-24T20:12:05.077Z,52.47
2023-03-24T20:15:11.017Z,52.65
2023-03-24T20:18:15.616Z,52.63
2023-03-24T20:21:22.339Z,52.77
2023-03-24T20:24:26.772Z,53.01
2023-03-24T20:27:31.085Z,53.05
2023-03-24T20:30:35.406Z,53.19
2023-03-24T20:33:40.019Z,53.29
2023-03-24T20:36:44.452Z,53.54
2023-03-24T20:39:48.877Z,53.76
2023-03-24T20:42:53.385Z,53.85
2023-03-24T20:45:57.918Z,53.92
2023-03-24T20:49:02.612Z,54.12
2023-03-24T20:52:07.151Z,54.11
2023-03-24T20:55:12.544Z,54.13
2023-03-24T20:58:16.950Z,54.30
2023-03-24T21:01:22.325Z,54.38
2023-03-24T21:04:26.826Z,54.38
2023-03-24T21:07:31.212Z,54.49
2023-03-24T21:10:38.154Z,54.60
2023-03-24T21:13:42.545Z,54.55
2023-03-24T21:16:47.469Z,54.51
2023-03-24T21:19:54.806Z,54.64
2023-03-24T21:23:03.502Z,54.64
2023-03-24T21:26:08.339Z,54.80
2023-03-24T21:29:13.204Z,54.78
2023-03-24T21:32:17.633Z,54.85
2023-03-24T21:35:22.583Z,54.87
2023-03-24T21:38:27.203Z,54.98
2023-03-24T21:41:31.704Z,55.02
2023-03-24T21:44:36.327Z,54.99
2023-03-24T21:47:40.766Z,55.13
2023-03-24T21:50:45.565Z,55.15
2023-03-24T21:53:49.786Z,55.36
2023-03-24T21:56:54.256Z,55.44
2023-03-24T21:59:59.551Z,55.74
2023-03-24T22:03:04.088Z,55.87
2023-03-24T22:06:12.957Z,56.10
2023-03-24T22:09:19.293Z,56.08
2023-03-24T22:12:23.696Z,56.09
2023-03-24T22:15:28.195Z,56.17
2023-03-24T22:18:34.352Z,56.40
2023-03-24T22:21:39.776Z,56.53
2023-03-24T22:24:44.352Z,56.57
2023-03-24T22:27:52.116Z,56.59
2023-03-24T22:31:02.046Z,56.54
2023-03-24T22:34:06.453Z,56.77
2023-03-24T22:37:10.854Z,56.77
2023-03-24T22:40:15.184Z,56.94
2023-03-24T22:43:19.588Z,57.03
2023-03-24T22:46:24.749Z,57.19
2023-03-24T22:49:29.374Z,57.18
2023-03-24T22:52:33.789Z,57.39
2023-03-24T22:55:39.118Z,57.50
2023-03-24T22:58:43.542Z,57.70
2023-03-24T23:01:53.648Z,57.76
2023-03-24T23:05:07.414Z,57.81
2023-03-24T23:08:11.807Z,57.81
2023-03-24T23:11:16.084Z,57.92
2023-03-24T23:14:20.318Z,58.04
2023-03-24T23:17:25.310Z,58.15
2023-03-24T23:20:29.801Z,58.24
2023-03-24T23:23:34.263Z,58.39
2023-03-24T23:26:38.422Z,58.35
2023-03-24T23:29:42.775Z,58.49
2023-03-24T23:32:48.582Z,58.58
2023-03-24T23:35:56.769Z,58.68
2023-03-24T23:39:01.257Z,58.74
2023-03-24T23:42:05.703Z,58.80
2023-03-24T23:45:14.767Z,58.84
2023-03-24T23:48:19.279Z,59.00
2023-03-24T23:51:23.643Z,59.08
2023-03-24T23:54:27.869Z,59.05
2023-03-24T23:57:33.006Z,59.24
